sensor_id;sensor_type;location;lat;lon;timestamp;P1;durP1;ratioP1;P2;durP2;ratioP2
75696;SDS011;64312;44.738;20.612;2023-04-08T00:01:52;30.77;;;15.88;;
75696;SDS011;64312;44.738;20.612;2023-04-08T00:04:17;24.85;;;13.82;;
75696;SDS011;64312;44.738;20.612;2023-04-08T00:06:43;27.42;;;15.05;;
75696;SDS011;64312;44.738;20.612;2023-04-08T00:09:09;28.80;;;15.02;;
75696;SDS011;64312;44.738;20.612;2023-04-08T00:11:34;26.45;;;14.30;;
75696;SDS011;64312;44.738;20.612;2023-04-08T00:14:02;25.98;;;14.88;;
75696;SDS011;64312;44.738;20.612;2023-04-08T00:16:28;23.85;;;13.88;;
75696;SDS011;64312;44.738;20.612;2023-04-08T00:18:55;26.10;;;14.05;;
75696;SDS011;64312;44.738;20.612;2023-04-08T00:21:21;26.83;;;14.32;;
75696;SDS011;64312;44.738;20.612;2023-04-08T00:23:47;21.67;;;12.57;;
75696;SDS011;64312;44.738;20.612;2023-04-08T00:26:13;24.13;;;13.23;;
75696;SDS011;64312;44.738;20.612;2023-04-08T00:28:41;23.63;;;13.50;;
75696;SDS011;64312;44.738;20.612;2023-04-08T00:31:07;28.52;;;15.38;;
75696;SDS011;64312;44.738;20.612;2023-04-08T00:33:33;28.05;;;15.80;;
75696;SDS011;64312;44.738;20.612;2023-04-08T00:35:59;27.52;;;15.32;;
75696;SDS011;64312;44.738;20.612;2023-04-08T00:38:25;24.65;;;14.30;;
75696;SDS011;64312;44.738;20.612;2023-04-08T00:40:50;23.90;;;13.38;;
75696;SDS011;64312;44.738;20.612;2023-04-08T00:43:16;23.50;;;14.38;;
75696;SDS011;64312;44.738;20.612;2023-04-08T00:45:45;25.30;;;14.43;;
75696;SDS011;64312;44.738;20.612;2023-04-08T00:48:11;30.95;;;14.77;;
75696;SDS011;64312;44.738;20.612;2023-04-08T00:50:36;29.20;;;14.80;;
75696;SDS011;64312;44.738;20.612;2023-04-08T00:53:02;28.77;;;15.32;;
75696;SDS011;64312;44.738;20.612;2023-04-08T00:55:28;26.48;;;15.35;;
75696;SDS011;64312;44.738;20.612;2023-04-08T00:57:54;33.47;;;17.38;;
75696;SDS011;64312;44.738;20.612;2023-04-08T01:00:20;28.33;;;15.93;;
75696;SDS011;64312;44.738;20.612;2023-04-08T01:05:59;28.92;;;15.63;;
75696;SDS011;64312;44.738;20.612;2023-04-08T01:08:28;26.42;;;15.52;;
75696;SDS011;64312;44.738;20.612;2023-04-08T01:10:57;29.60;;;15.15;;
75696;SDS011;64312;44.738;20.612;2023-04-08T01:13:25;31.13;;;14.85;;
75696;SDS011;64312;44.738;20.612;2023-04-08T01:15:55;26.55;;;15.27;;
75696;SDS011;64312;44.738;20.612;2023-04-08T01:18:21;27.02;;;15.93;;
75696;SDS011;64312;44.738;20.612;2023-04-08T01:20:48;25.67;;;14.90;;
75696;SDS011;64312;44.738;20.612;2023-04-08T01:23:23;23.90;;;14.30;;
75696;SDS011;64312;44.738;20.612;2023-04-08T01:25:51;28.23;;;14.40;;
75696;SDS011;64312;44.738;20.612;2023-04-08T01:28:18;23.58;;;13.32;;
75696;SDS011;64312;44.738;20.612;2023-04-08T01:30:47;21.52;;;12.60;;
75696;SDS011;64312;44.738;20.612;2023-04-08T01:33:14;20.67;;;12.40;;
75696;SDS011;64312;44.738;20.612;2023-04-08T01:35:42;23.88;;;13.07;;
75696;SDS011;64312;44.738;20.612;2023-04-08T01:38:10;17.83;;;10.98;;
75696;SDS011;64312;44.738;20.612;2023-04-08T01:40:40;22.08;;;11.88;;
75696;SDS011;64312;44.738;20.612;2023-04-08T01:43:07;19.52;;;11.48;;
75696;SDS011;64312;44.738;20.612;2023-04-08T01:45:36;22.08;;;12.15;;
75696;SDS011;64312;44.738;20.612;2023-04-08T01:48:03;22.95;;;12.13;;
75696;SDS011;64312;44.738;20.612;2023-04-08T01:50:29;20.65;;;12.45;;
75696;SDS011;64312;44.738;20.612;2023-04-08T01:52:56;28.98;;;16.48;;
75696;SDS011;64312;44.738;20.612;2023-04-08T01:55:24;27.80;;;16.00;;
75696;SDS011;64312;44.738;20.612;2023-04-08T01:57:52;26.75;;;15.88;;
75696;SDS011;64312;44.738;20.612;2023-04-08T02:00:24;29.45;;;15.57;;
75696;SDS011;64312;44.738;20.612;2023-04-08T02:02:52;25.90;;;13.70;;
75696;SDS011;64312;44.738;20.612;2023-04-08T02:05:19;24.90;;;14.48;;
75696;SDS011;64312;44.738;20.612;2023-04-08T02:07:48;24.85;;;13.57;;
75696;SDS011;64312;44.738;20.612;2023-04-08T02:10:14;19.90;;;12.77;;
75696;SDS011;64312;44.738;20.612;2023-04-08T02:12:40;22.65;;;13.13;;
75696;SDS011;64312;44.738;20.612;2023-04-08T02:15:08;23.35;;;13.68;;
75696;SDS011;64312;44.738;20.612;2023-04-08T02:20:20;24.13;;;13.48;;
75696;SDS011;64312;44.738;20.612;2023-04-08T02:25:39;25.00;;;12.95;;
75696;SDS011;64312;44.738;20.612;2023-04-08T02:28:09;23.27;;;13.77;;
75696;SDS011;64312;44.738;20.612;2023-04-08T02:30:36;23.25;;;13.77;;
75696;SDS011;64312;44.738;20.612;2023-04-08T02:33:05;27.80;;;14.23;;
75696;SDS011;64312;44.738;20.612;2023-04-08T02:35:33;22.58;;;13.18;;
75696;SDS011;64312;44.738;20.612;2023-04-08T02:38:00;25.98;;;14.43;;
75696;SDS011;64312;44.738;20.612;2023-04-08T02:40:27;28.20;;;16.10;;
75696;SDS011;64312;44.738;20.612;2023-04-08T02:42:55;25.20;;;14.45;;
75696;SDS011;64312;44.738;20.612;2023-04-08T02:45:24;24.13;;;13.70;;
75696;SDS011;64312;44.738;20.612;2023-04-08T02:47:52;23.00;;;13.20;;
75696;SDS011;64312;44.738;20.612;2023-04-08T02:50:18;24.13;;;12.90;;
75696;SDS011;64312;44.738;20.612;2023-04-08T02:52:43;27.10;;;14.05;;
75696;SDS011;64312;44.738;20.612;2023-04-08T02:55:09;22.60;;;12.93;;
75696;SDS011;64312;44.738;20.612;2023-04-08T02:57:36;23.15;;;13.73;;
75696;SDS011;64312;44.738;20.612;2023-04-08T03:00:03;22.50;;;12.48;;
75696;SDS011;64312;44.738;20.612;2023-04-08T03:02:30;22.63;;;12.90;;
75696;SDS011;64312;44.738;20.612;2023-04-08T03:04:55;23.58;;;13.93;;
75696;SDS011;64312;44.738;20.612;2023-04-08T03:07:21;23.00;;;13.45;;
75696;SDS011;64312;44.738;20.612;2023-04-08T03:09:46;24.38;;;13.45;;
75696;SDS011;64312;44.738;20.612;2023-04-08T03:12:12;22.15;;;12.75;;
75696;SDS011;64312;44.738;20.612;2023-04-08T03:14:38;25.77;;;14.63;;
75696;SDS011;64312;44.738;20.612;2023-04-08T03:17:04;25.52;;;14.50;;
75696;SDS011;64312;44.738;20.612;2023-04-08T03:19:29;29.73;;;15.85;;
75696;SDS011;64312;44.738;20.612;2023-04-08T03:21:55;27.65;;;15.40;;
75696;SDS011;64312;44.738;20.612;2023-04-08T03:24:20;25.60;;;15.23;;
75696;SDS011;64312;44.738;20.612;2023-04-08T03:26:46;28.20;;;16.08;;
75696;SDS011;64312;44.738;20.612;2023-04-08T03:29:11;28.92;;;15.68;;
75696;SDS011;64312;44.738;20.612;2023-04-08T03:31:37;28.10;;;15.20;;
75696;SDS011;64312;44.738;20.612;2023-04-08T03:34:03;28.92;;;16.08;;
75696;SDS011;64312;44.738;20.612;2023-04-08T03:36:28;25.55;;;14.88;;
75696;SDS011;64312;44.738;20.612;2023-04-08T03:38:55;22.67;;;13.25;;
75696;SDS011;64312;44.738;20.612;2023-04-08T03:41:20;27.20;;;14.40;;
75696;SDS011;64312;44.738;20.612;2023-04-08T03:43:46;27.90;;;14.95;;
75696;SDS011;64312;44.738;20.612;2023-04-08T03:46:12;26.40;;;14.00;;
75696;SDS011;64312;44.738;20.612;2023-04-08T03:48:37;24.88;;;14.88;;
75696;SDS011;64312;44.738;20.612;2023-04-08T03:51:03;22.80;;;13.88;;
75696;SDS011;64312;44.738;20.612;2023-04-08T03:53:29;25.42;;;14.43;;
75696;SDS011;64312;44.738;20.612;2023-04-08T03:55:55;24.92;;;13.50;;
75696;SDS011;64312;44.738;20.612;2023-04-08T03:58:21;27.15;;;13.90;;
75696;SDS011;64312;44.738;20.612;2023-04-08T04:00:47;26.63;;;14.38;;
75696;SDS011;64312;44.738;20.612;2023-04-08T04:03:12;35.85;;;16.98;;
75696;SDS011;64312;44.738;20.612;2023-04-08T04:05:39;42.78;;;19.10;;
75696;SDS011;64312;44.738;20.612;2023-04-08T04:08:04;51.10;;;21.65;;
75696;SDS011;64312;44.738;20.612;2023-04-08T04:10:31;51.42;;;22.88;;
75696;SDS011;64312;44.738;20.612;2023-04-08T04:12:56;52.88;;;24.50;;
75696;SDS011;64312;44.738;20.612;2023-04-08T04:15:22;63.33;;;27.48;;
75696;SDS011;64312;44.738;20.612;2023-04-08T04:17:47;49.45;;;24.83;;
75696;SDS011;64312;44.738;20.612;2023-04-08T04:20:17;51.25;;;23.70;;
75696;SDS011;64312;44.738;20.612;2023-04-08T04:22:43;44.72;;;21.65;;
75696;SDS011;64312;44.738;20.612;2023-04-08T04:25:09;41.60;;;19.73;;
75696;SDS011;64312;44.738;20.612;2023-04-08T04:27:35;35.05;;;17.80;;
75696;SDS011;64312;44.738;20.612;2023-04-08T04:30:01;31.52;;;15.63;;
75696;SDS011;64312;44.738;20.612;2023-04-08T04:32:27;27.73;;;14.65;;
75696;SDS011;64312;44.738;20.612;2023-04-08T04:34:53;28.33;;;15.02;;
75696;SDS011;64312;44.738;20.612;2023-04-08T04:37:18;26.08;;;14.82;;
75696;SDS011;64312;44.738;20.612;2023-04-08T04:39:44;28.92;;;15.20;;
75696;SDS011;64312;44.738;20.612;2023-04-08T04:42:10;31.85;;;16.88;;
75696;SDS011;64312;44.738;20.612;2023-04-08T04:44:36;30.15;;;17.13;;
75696;SDS011;64312;44.738;20.612;2023-04-08T04:47:02;35.78;;;17.95;;
75696;SDS011;64312;44.738;20.612;2023-04-08T04:49:27;31.77;;;18.00;;
75696;SDS011;64312;44.738;20.612;2023-04-08T04:51:53;29.60;;;16.20;;
75696;SDS011;64312;44.738;20.612;2023-04-08T04:54:18;28.92;;;16.65;;
75696;SDS011;64312;44.738;20.612;2023-04-08T04:56:44;26.73;;;14.98;;
75696;SDS011;64312;44.738;20.612;2023-04-08T04:59:10;24.67;;;14.02;;
75696;SDS011;64312;44.738;20.612;2023-04-08T05:01:36;37.97;;;19.60;;
75696;SDS011;64312;44.738;20.612;2023-04-08T05:04:02;37.25;;;21.67;;
75696;SDS011;64312;44.738;20.612;2023-04-08T05:06:27;33.03;;;19.92;;
75696;SDS011;64312;44.738;20.612;2023-04-08T05:08:53;31.15;;;18.88;;
75696;SDS011;64312;44.738;20.612;2023-04-08T05:11:18;38.15;;;21.48;;
75696;SDS011;64312;44.738;20.612;2023-04-08T05:13:46;37.40;;;20.95;;
75696;SDS011;64312;44.738;20.612;2023-04-08T05:16:12;35.22;;;20.13;;
75696;SDS011;64312;44.738;20.612;2023-04-08T05:18:37;35.45;;;20.75;;
75696;SDS011;64312;44.738;20.612;2023-04-08T05:21:03;34.75;;;21.45;;
75696;SDS011;64312;44.738;20.612;2023-04-08T05:23:29;32.95;;;19.50;;
75696;SDS011;64312;44.738;20.612;2023-04-08T05:25:54;32.05;;;18.33;;
75696;SDS011;64312;44.738;20.612;2023-04-08T05:28:21;29.50;;;17.27;;
75696;SDS011;64312;44.738;20.612;2023-04-08T05:30:50;32.13;;;18.00;;
75696;SDS011;64312;44.738;20.612;2023-04-08T05:33:17;28.60;;;16.35;;
75696;SDS011;64312;44.738;20.612;2023-04-08T05:35:43;27.38;;;15.70;;
75696;SDS011;64312;44.738;20.612;2023-04-08T05:38:10;25.75;;;14.95;;
75696;SDS011;64312;44.738;20.612;2023-04-08T05:40:35;41.03;;;19.85;;
75696;SDS011;64312;44.738;20.612;2023-04-08T05:43:01;49.88;;;22.08;;
75696;SDS011;64312;44.738;20.612;2023-04-08T05:45:27;51.80;;;25.15;;
75696;SDS011;64312;44.738;20.612;2023-04-08T05:47:53;54.70;;;23.05;;
75696;SDS011;64312;44.738;20.612;2023-04-08T05:50:19;49.08;;;23.17;;
75696;SDS011;64312;44.738;20.612;2023-04-08T05:52:45;70.10;;;32.38;;
75696;SDS011;64312;44.738;20.612;2023-04-08T05:55:11;65.63;;;32.83;;
75696;SDS011;64312;44.738;20.612;2023-04-08T05:57:38;66.15;;;31.50;;
75696;SDS011;64312;44.738;20.612;2023-04-08T06:00:05;67.95;;;31.13;;
75696;SDS011;64312;44.738;20.612;2023-04-08T06:02:32;65.57;;;29.20;;
75696;SDS011;64312;44.738;20.612;2023-04-08T06:04:59;63.03;;;27.95;;
75696;SDS011;64312;44.738;20.612;2023-04-08T06:07:25;54.28;;;28.13;;
75696;SDS011;64312;44.738;20.612;2023-04-08T06:09:51;52.75;;;27.73;;
75696;SDS011;64312;44.738;20.612;2023-04-08T06:12:16;53.55;;;27.65;;
75696;SDS011;64312;44.738;20.612;2023-04-08T06:14:42;54.70;;;25.77;;
75696;SDS011;64312;44.738;20.612;2023-04-08T06:17:07;47.80;;;26.00;;
75696;SDS011;64312;44.738;20.612;2023-04-08T06:19:33;51.25;;;24.70;;
75696;SDS011;64312;44.738;20.612;2023-04-08T06:21:59;44.67;;;25.58;;
75696;SDS011;64312;44.738;20.612;2023-04-08T06:24:25;51.17;;;25.58;;
75696;SDS011;64312;44.738;20.612;2023-04-08T06:26:52;49.80;;;25.52;;
75696;SDS011;64312;44.738;20.612;2023-04-08T06:29:18;58.38;;;28.55;;
75696;SDS011;64312;44.738;20.612;2023-04-08T06:31:45;52.92;;;27.00;;
75696;SDS011;64312;44.738;20.612;2023-04-08T06:34:10;79.15;;;39.20;;
75696;SDS011;64312;44.738;20.612;2023-04-08T06:36:36;107.10;;;50.85;;
75696;SDS011;64312;44.738;20.612;2023-04-08T06:39:02;87.72;;;45.10;;
75696;SDS011;64312;44.738;20.612;2023-04-08T06:41:28;78.97;;;40.92;;
75696;SDS011;64312;44.738;20.612;2023-04-08T06:44:00;73.10;;;37.83;;
75696;SDS011;64312;44.738;20.612;2023-04-08T06:46:26;65.45;;;34.17;;
75696;SDS011;64312;44.738;20.612;2023-04-08T06:48:51;53.47;;;30.30;;
75696;SDS011;64312;44.738;20.612;2023-04-08T06:51:17;45.80;;;23.35;;
75696;SDS011;64312;44.738;20.612;2023-04-08T06:53:43;34.15;;;20.58;;
75696;SDS011;64312;44.738;20.612;2023-04-08T06:56:09;32.40;;;18.33;;
75696;SDS011;64312;44.738;20.612;2023-04-08T06:58:35;27.50;;;16.30;;
75696;SDS011;64312;44.738;20.612;2023-04-08T07:01:01;22.23;;;13.95;;
75696;SDS011;64312;44.738;20.612;2023-04-08T07:03:27;22.73;;;14.88;;
75696;SDS011;64312;44.738;20.612;2023-04-08T07:05:53;24.83;;;13.95;;
75696;SDS011;64312;44.738;20.612;2023-04-08T07:08:18;19.80;;;13.23;;
75696;SDS011;64312;44.738;20.612;2023-04-08T07:10:44;20.08;;;10.95;;
75696;SDS011;64312;44.738;20.612;2023-04-08T07:13:10;17.63;;;11.50;;
75696;SDS011;64312;44.738;20.612;2023-04-08T07:15:36;18.75;;;12.38;;
75696;SDS011;64312;44.738;20.612;2023-04-08T07:18:02;18.05;;;13.00;;
75696;SDS011;64312;44.738;20.612;2023-04-08T07:20:29;18.27;;;11.85;;
75696;SDS011;64312;44.738;20.612;2023-04-08T07:22:54;18.90;;;12.13;;
75696;SDS011;64312;44.738;20.612;2023-04-08T07:25:20;17.15;;;10.80;;
75696;SDS011;64312;44.738;20.612;2023-04-08T07:27:46;16.40;;;10.02;;
75696;SDS011;64312;44.738;20.612;2023-04-08T07:30:12;16.73;;;10.20;;
75696;SDS011;64312;44.738;20.612;2023-04-08T07:32:37;15.60;;;10.00;;
75696;SDS011;64312;44.738;20.612;2023-04-08T07:35:03;14.07;;;10.18;;
75696;SDS011;64312;44.738;20.612;2023-04-08T07:37:28;17.80;;;10.98;;
75696;SDS011;64312;44.738;20.612;2023-04-08T07:39:54;17.08;;;10.82;;
75696;SDS011;64312;44.738;20.612;2023-04-08T07:42:20;15.32;;;10.20;;
75696;SDS011;64312;44.738;20.612;2023-04-08T07:44:46;19.75;;;11.50;;
75696;SDS011;64312;44.738;20.612;2023-04-08T07:47:11;17.08;;;11.65;;
75696;SDS011;64312;44.738;20.612;2023-04-08T07:49:37;18.27;;;11.07;;
75696;SDS011;64312;44.738;20.612;2023-04-08T07:52:03;16.92;;;11.20;;
75696;SDS011;64312;44.738;20.612;2023-04-08T07:54:30;17.92;;;11.57;;
75696;SDS011;64312;44.738;20.612;2023-04-08T07:56:58;20.65;;;12.18;;
75696;SDS011;64312;44.738;20.612;2023-04-08T07:59:24;21.00;;;12.55;;
75696;SDS011;64312;44.738;20.612;2023-04-08T08:01:50;22.55;;;13.65;;
75696;SDS011;64312;44.738;20.612;2023-04-08T08:04:16;22.20;;;14.38;;
75696;SDS011;64312;44.738;20.612;2023-04-08T08:06:42;24.08;;;14.35;;
75696;SDS011;64312;44.738;20.612;2023-04-08T08:09:08;23.42;;;14.18;;
75696;SDS011;64312;44.738;20.612;2023-04-08T08:11:34;22.67;;;15.52;;
75696;SDS011;64312;44.738;20.612;2023-04-08T08:13:59;23.83;;;14.90;;
75696;SDS011;64312;44.738;20.612;2023-04-08T08:16:29;23.23;;;14.80;;
75696;SDS011;64312;44.738;20.612;2023-04-08T08:18:56;23.98;;;14.88;;
75696;SDS011;64312;44.738;20.612;2023-04-08T08:21:22;27.00;;;18.13;;
75696;SDS011;64312;44.738;20.612;2023-04-08T08:23:48;31.83;;;18.90;;
75696;SDS011;64312;44.738;20.612;2023-04-08T08:26:13;29.30;;;18.00;;
75696;SDS011;64312;44.738;20.612;2023-04-08T08:28:39;28.70;;;18.90;;
75696;SDS011;64312;44.738;20.612;2023-04-08T08:31:04;32.65;;;18.85;;
75696;SDS011;64312;44.738;20.612;2023-04-08T08:33:31;29.23;;;18.20;;
75696;SDS011;64312;44.738;20.612;2023-04-08T08:35:57;25.20;;;16.90;;
75696;SDS011;64312;44.738;20.612;2023-04-08T08:38:23;22.90;;;14.73;;
75696;SDS011;64312;44.738;20.612;2023-04-08T08:40:52;18.88;;;13.25;;
75696;SDS011;64312;44.738;20.612;2023-04-08T08:43:25;23.70;;;14.13;;
75696;SDS011;64312;44.738;20.612;2023-04-08T08:45:52;30.50;;;17.80;;
75696;SDS011;64312;44.738;20.612;2023-04-08T08:48:18;31.33;;;18.08;;
75696;SDS011;64312;44.738;20.612;2023-04-08T08:50:44;26.48;;;15.90;;
75696;SDS011;64312;44.738;20.612;2023-04-08T08:53:10;24.27;;;15.20;;
75696;SDS011;64312;44.738;20.612;2023-04-08T08:55:35;35.90;;;18.80;;
75696;SDS011;64312;44.738;20.612;2023-04-08T08:58:04;25.23;;;16.25;;
75696;SDS011;64312;44.738;20.612;2023-04-08T09:00:30;30.30;;;18.40;;
75696;SDS011;64312;44.738;20.612;2023-04-08T09:03:17;28.50;;;18.27;;
75696;SDS011;64312;44.738;20.612;2023-04-08T09:10:52;20.40;;;13.52;;
75696;SDS011;64312;44.738;20.612;2023-04-08T09:13:34;27.10;;;16.77;;
75696;SDS011;64312;44.738;20.612;2023-04-08T09:16:04;20.83;;;14.60;;
75696;SDS011;64312;44.738;20.612;2023-04-08T09:18:37;19.65;;;13.40;;
75696;SDS011;64312;44.738;20.612;2023-04-08T09:21:04;19.23;;;13.57;;
75696;SDS011;64312;44.738;20.612;2023-04-08T09:23:41;19.95;;;13.52;;
75696;SDS011;64312;44.738;20.612;2023-04-08T09:26:12;22.55;;;15.00;;
75696;SDS011;64312;44.738;20.612;2023-04-08T09:28:41;32.70;;;19.50;;
75696;SDS011;64312;44.738;20.612;2023-04-08T09:33:47;21.70;;;14.30;;
75696;SDS011;64312;44.738;20.612;2023-04-08T09:36:14;24.08;;;15.95;;
75696;SDS011;64312;44.738;20.612;2023-04-08T09:38:41;25.38;;;16.55;;
75696;SDS011;64312;44.738;20.612;2023-04-08T09:41:07;18.27;;;13.48;;
75696;SDS011;64312;44.738;20.612;2023-04-08T09:43:41;20.00;;;13.18;;
75696;SDS011;64312;44.738;20.612;2023-04-08T09:46:24;16.13;;;12.23;;
75696;SDS011;64312;44.738;20.612;2023-04-08T09:49:04;16.90;;;12.48;;
75696;SDS011;64312;44.738;20.612;2023-04-08T09:51:41;16.52;;;12.27;;
75696;SDS011;64312;44.738;20.612;2023-04-08T09:54:14;20.55;;;12.32;;
75696;SDS011;64312;44.738;20.612;2023-04-08T09:57:04;17.58;;;12.02;;
75696;SDS011;64312;44.738;20.612;2023-04-08T09:59:33;22.92;;;14.95;;
75696;SDS011;64312;44.738;20.612;2023-04-08T10:02:04;24.23;;;14.93;;
75696;SDS011;64312;44.738;20.612;2023-04-08T10:04:34;31.15;;;17.90;;
75696;SDS011;64312;44.738;20.612;2023-04-08T10:07:03;50.40;;;25.83;;
75696;SDS011;64312;44.738;20.612;2023-04-08T10:09:31;34.75;;;19.75;;
75696;SDS011;64312;44.738;20.612;2023-04-08T10:11:57;29.75;;;17.27;;
75696;SDS011;64312;44.738;20.612;2023-04-08T10:14:23;29.27;;;16.58;;
75696;SDS011;64312;44.738;20.612;2023-04-08T10:17:22;24.92;;;16.42;;
75696;SDS011;64312;44.738;20.612;2023-04-08T10:19:51;22.92;;;14.02;;
75696;SDS011;64312;44.738;20.612;2023-04-08T10:27:43;21.70;;;14.52;;
75696;SDS011;64312;44.738;20.612;2023-04-08T10:32:51;17.10;;;12.70;;
75696;SDS011;64312;44.738;20.612;2023-04-08T10:35:17;24.30;;;15.73;;
75696;SDS011;64312;44.738;20.612;2023-04-08T10:37:53;21.48;;;14.77;;
75696;SDS011;64312;44.738;20.612;2023-04-08T10:40:18;19.73;;;12.52;;
75696;SDS011;64312;44.738;20.612;2023-04-08T10:42:44;19.20;;;12.60;;
75696;SDS011;64312;44.738;20.612;2023-04-08T10:45:10;18.70;;;11.82;;
75696;SDS011;64312;44.738;20.612;2023-04-08T10:47:42;17.58;;;11.75;;
75696;SDS011;64312;44.738;20.612;2023-04-08T10:50:14;16.88;;;12.73;;
75696;SDS011;64312;44.738;20.612;2023-04-08T10:55:24;17.90;;;11.75;;
75696;SDS011;64312;44.738;20.612;2023-04-08T10:57:53;15.20;;;11.05;;
75696;SDS011;64312;44.738;20.612;2023-04-08T11:00:31;20.30;;;14.25;;
75696;SDS011;64312;44.738;20.612;2023-04-08T11:03:02;22.42;;;13.35;;
75696;SDS011;64312;44.738;20.612;2023-04-08T11:05:30;18.63;;;12.48;;
75696;SDS011;64312;44.738;20.612;2023-04-08T11:07:57;21.77;;;13.15;;
75696;SDS011;64312;44.738;20.612;2023-04-08T11:10:24;17.92;;;12.23;;
75696;SDS011;64312;44.738;20.612;2023-04-08T11:12:52;17.17;;;11.32;;
75696;SDS011;64312;44.738;20.612;2023-04-08T11:15:20;19.10;;;11.70;;
75696;SDS011;64312;44.738;20.612;2023-04-08T11:17:46;18.58;;;12.63;;
75696;SDS011;64312;44.738;20.612;2023-04-08T11:20:13;20.95;;;13.80;;
75696;SDS011;64312;44.738;20.612;2023-04-08T11:22:42;23.00;;;13.73;;
75696;SDS011;64312;44.738;20.612;2023-04-08T11:25:09;23.40;;;14.98;;
75696;SDS011;64312;44.738;20.612;2023-04-08T11:27:36;23.42;;;15.45;;
75696;SDS011;64312;44.738;20.612;2023-04-08T11:30:03;20.42;;;14.88;;
75696;SDS011;64312;44.738;20.612;2023-04-08T11:32:30;20.52;;;13.13;;
75696;SDS011;64312;44.738;20.612;2023-04-08T11:35:01;20.45;;;12.63;;
75696;SDS011;64312;44.738;20.612;2023-04-08T11:37:39;21.48;;;13.70;;
75696;SDS011;64312;44.738;20.612;2023-04-08T11:40:09;20.23;;;13.60;;
75696;SDS011;64312;44.738;20.612;2023-04-08T11:42:37;22.30;;;13.70;;
75696;SDS011;64312;44.738;20.612;2023-04-08T11:45:13;20.75;;;13.23;;
75696;SDS011;64312;44.738;20.612;2023-04-08T11:47:40;21.70;;;15.13;;
75696;SDS011;64312;44.738;20.612;2023-04-08T11:50:07;28.40;;;16.40;;
75696;SDS011;64312;44.738;20.612;2023-04-08T11:55:10;20.05;;;13.55;;
75696;SDS011;64312;44.738;20.612;2023-04-08T11:57:37;24.40;;;15.88;;
75696;SDS011;64312;44.738;20.612;2023-04-08T12:00:05;23.35;;;14.07;;
75696;SDS011;64312;44.738;20.612;2023-04-08T12:02:36;19.77;;;13.15;;
75696;SDS011;64312;44.738;20.612;2023-04-08T12:05:01;26.52;;;15.82;;
75696;SDS011;64312;44.738;20.612;2023-04-08T12:07:27;32.65;;;18.77;;
75696;SDS011;64312;44.738;20.612;2023-04-08T12:09:53;37.42;;;19.20;;
75696;SDS011;64312;44.738;20.612;2023-04-08T12:12:19;28.40;;;17.20;;
75696;SDS011;64312;44.738;20.612;2023-04-08T12:14:45;24.50;;;14.10;;
75696;SDS011;64312;44.738;20.612;2023-04-08T12:17:10;21.63;;;14.10;;
75696;SDS011;64312;44.738;20.612;2023-04-08T12:19:37;20.42;;;13.68;;
75696;SDS011;64312;44.738;20.612;2023-04-08T12:22:02;20.95;;;14.35;;
75696;SDS011;64312;44.738;20.612;2023-04-08T12:24:28;21.73;;;14.45;;
75696;SDS011;64312;44.738;20.612;2023-04-08T12:26:53;23.50;;;14.50;;
75696;SDS011;64312;44.738;20.612;2023-04-08T12:29:20;22.88;;;13.80;;
75696;SDS011;64312;44.738;20.612;2023-04-08T12:31:46;25.27;;;14.90;;
75696;SDS011;64312;44.738;20.612;2023-04-08T12:34:11;22.55;;;15.40;;
75696;SDS011;64312;44.738;20.612;2023-04-08T12:36:37;21.48;;;14.60;;
75696;SDS011;64312;44.738;20.612;2023-04-08T12:39:03;19.98;;;12.93;;
75696;SDS011;64312;44.738;20.612;2023-04-08T12:41:28;21.98;;;14.68;;
75696;SDS011;64312;44.738;20.612;2023-04-08T12:43:54;23.58;;;15.52;;
75696;SDS011;64312;44.738;20.612;2023-04-08T12:46:20;19.67;;;13.25;;
75696;SDS011;64312;44.738;20.612;2023-04-08T12:48:46;19.02;;;12.85;;
75696;SDS011;64312;44.738;20.612;2023-04-08T12:51:12;17.67;;;13.02;;
75696;SDS011;64312;44.738;20.612;2023-04-08T12:53:38;20.30;;;13.45;;
75696;SDS011;64312;44.738;20.612;2023-04-08T12:56:03;18.15;;;12.80;;
75696;SDS011;64312;44.738;20.612;2023-04-08T12:58:29;17.75;;;13.07;;
75696;SDS011;64312;44.738;20.612;2023-04-08T13:00:55;18.73;;;13.02;;
75696;SDS011;64312;44.738;20.612;2023-04-08T13:03:21;27.90;;;15.43;;
75696;SDS011;64312;44.738;20.612;2023-04-08T13:05:46;25.45;;;16.10;;
75696;SDS011;64312;44.738;20.612;2023-04-08T13:08:12;25.42;;;15.30;;
75696;SDS011;64312;44.738;20.612;2023-04-08T13:10:38;22.73;;;14.02;;
75696;SDS011;64312;44.738;20.612;2023-04-08T13:13:05;24.38;;;17.02;;
75696;SDS011;64312;44.738;20.612;2023-04-08T13:15:30;19.38;;;13.27;;
75696;SDS011;64312;44.738;20.612;2023-04-08T13:17:56;16.90;;;13.18;;
75696;SDS011;64312;44.738;20.612;2023-04-08T13:20:22;24.40;;;17.92;;
75696;SDS011;64312;44.738;20.612;2023-04-08T13:22:51;20.33;;;16.23;;
75696;SDS011;64312;44.738;20.612;2023-04-08T13:25:19;20.33;;;14.30;;
75696;SDS011;64312;44.738;20.612;2023-04-08T13:27:45;20.75;;;14.32;;
75696;SDS011;64312;44.738;20.612;2023-04-08T13:30:11;20.45;;;14.73;;
75696;SDS011;64312;44.738;20.612;2023-04-08T13:32:37;16.67;;;12.57;;
75696;SDS011;64312;44.738;20.612;2023-04-08T13:35:02;16.33;;;12.38;;
75696;SDS011;64312;44.738;20.612;2023-04-08T13:37:28;20.85;;;14.68;;
75696;SDS011;64312;44.738;20.612;2023-04-08T13:39:54;19.25;;;14.00;;
75696;SDS011;64312;44.738;20.612;2023-04-08T13:42:21;19.40;;;13.40;;
75696;SDS011;64312;44.738;20.612;2023-04-08T13:44:47;18.95;;;14.27;;
75696;SDS011;64312;44.738;20.612;2023-04-08T13:47:12;19.20;;;13.40;;
75696;SDS011;64312;44.738;20.612;2023-04-08T13:49:38;19.40;;;13.23;;
75696;SDS011;64312;44.738;20.612;2023-04-08T13:52:03;20.83;;;13.85;;
75696;SDS011;64312;44.738;20.612;2023-04-08T13:54:29;20.88;;;14.63;;
75696;SDS011;64312;44.738;20.612;2023-04-08T13:56:55;19.13;;;14.20;;
75696;SDS011;64312;44.738;20.612;2023-04-08T13:59:22;21.50;;;14.10;;
75696;SDS011;64312;44.738;20.612;2023-04-08T14:01:47;19.17;;;14.45;;
75696;SDS011;64312;44.738;20.612;2023-04-08T14:04:13;22.17;;;14.48;;
75696;SDS011;64312;44.738;20.612;2023-04-08T14:06:39;22.40;;;14.52;;
75696;SDS011;64312;44.738;20.612;2023-04-08T14:09:05;21.52;;;13.70;;
75696;SDS011;64312;44.738;20.612;2023-04-08T14:11:31;22.35;;;14.07;;
75696;SDS011;64312;44.738;20.612;2023-04-08T14:13:57;23.33;;;15.57;;
75696;SDS011;64312;44.738;20.612;2023-04-08T14:16:22;23.48;;;14.60;;
75696;SDS011;64312;44.738;20.612;2023-04-08T14:18:48;20.40;;;14.13;;
75696;SDS011;64312;44.738;20.612;2023-04-08T14:21:14;22.98;;;13.43;;
75696;SDS011;64312;44.738;20.612;2023-04-08T14:23:40;20.67;;;13.73;;
75696;SDS011;64312;44.738;20.612;2023-04-08T14:26:06;22.35;;;14.57;;
75696;SDS011;64312;44.738;20.612;2023-04-08T14:28:31;24.88;;;15.45;;
75696;SDS011;64312;44.738;20.612;2023-04-08T14:30:57;16.13;;;12.40;;
75696;SDS011;64312;44.738;20.612;2023-04-08T14:33:22;16.98;;;12.45;;
75696;SDS011;64312;44.738;20.612;2023-04-08T14:35:48;17.33;;;12.73;;
75696;SDS011;64312;44.738;20.612;2023-04-08T14:38:13;18.58;;;12.75;;